Higashi-osaka, Japan
Current Conditions -  °F | °C
As of 6:00 PM on Tuesday 21 Oct 2014 (Local Time) from RJOO Reporting Station
Broken Clouds Broken Clouds  
Wind Chill: 73°   Ceiling: Unl
Heat Index: 73°   Visibility: 6mi
Dew Point: 63°   Wind: 3mph
Humidity: 69%   Direction: 250°WSW
Pressure: 29.91"   Gusts: NA
Location:  34.67°N, 135.58°E
Report Text: RJOO 210900Z 25003KT 200V300 9999 FEW025 SCT100 BKN/// 23/17 Q1013 RMK 1CU025 4AC100 A2992
Loading
Personal Weather Stations






























Interactive Weather Map
Tropical Storm Tracking
New forecast layout! Learn more

10-Day Weather Forecast

Advertisements
Track Severe Weather on mobile